createdAt,value
2022-12-08T00:01:21.371Z,6.22
2022-12-08T00:03:49.985Z,8.57
2022-12-08T00:06:38.536Z,12.25
2022-12-08T00:09:23.958Z,10.00
2022-12-08T00:14:19.355Z,8.32
2022-12-08T00:16:46.521Z,11.60
2022-12-08T00:19:13.845Z,5.28
2022-12-08T00:21:41.066Z,5.88
2022-12-08T00:24:08.186Z,5.60
2022-12-08T00:26:35.336Z,2.45
2022-12-08T00:29:02.612Z,3.53
2022-12-08T00:31:29.695Z,1.27
2022-12-08T00:33:57.126Z,4.57
2022-12-08T00:36:24.156Z,4.18
2022-12-08T00:38:51.556Z,1.25
2022-12-08T00:41:43.575Z,2.05
2022-12-08T00:44:13.935Z,2.08
2022-12-08T00:46:41.474Z,1.45
2022-12-08T00:49:09.785Z,1.92
2022-12-08T00:51:37.536Z,1.55
2022-12-08T00:54:05.760Z,2.28
2022-12-08T00:56:33.296Z,3.88
2022-12-08T00:59:00.863Z,2.05
2022-12-08T01:01:28.213Z,2.40
2022-12-08T01:03:55.775Z,2.42
2022-12-08T01:06:23.033Z,5.00
2022-12-08T01:08:50.194Z,2.03
2022-12-08T01:11:19.245Z,2.08
2022-12-08T01:13:47.316Z,2.75
2022-12-08T01:16:25.737Z,2.75
2022-12-08T01:18:53.373Z,2.17
2022-12-08T01:21:20.881Z,2.33
2022-12-08T01:23:48.016Z,3.60
2022-12-08T01:26:16.453Z,5.10
2022-12-08T01:28:43.973Z,4.40
2022-12-08T01:31:16.995Z,2.17
2022-12-08T01:33:44.315Z,9.98
2022-12-08T01:36:38.633Z,4.03
2022-12-08T01:39:07.837Z,2.30
2022-12-08T01:41:37.602Z,0.85
2022-12-08T01:44:13.705Z,2.60
2022-12-08T01:46:45.684Z,1.50
2022-12-08T01:49:22.836Z,1.58
2022-12-08T01:51:55.533Z,2.20
2022-12-08T01:56:52.295Z,0.50
2022-12-08T01:59:20.373Z,2.13
2022-12-08T02:01:51.804Z,2.38
2022-12-08T02:04:19.034Z,2.58
2022-12-08T02:06:47.384Z,2.22
2022-12-08T02:09:14.734Z,2.63
2022-12-08T02:11:41.996Z,1.77
2022-12-08T02:14:10.436Z,0.60
2022-12-08T02:16:52.676Z,1.85
2022-12-08T02:19:55.195Z,0.77
2022-12-08T02:22:47.935Z,1.02
2022-12-08T02:25:34.052Z,2.15
2022-12-08T02:28:28.643Z,0.73
2022-12-08T02:31:12.381Z,2.85
2022-12-08T02:33:58.258Z,3.08
2022-12-08T02:36:40.355Z,2.53
2022-12-08T02:39:25.537Z,1.65
2022-12-08T02:42:16.674Z,0.38
2022-12-08T02:44:48.994Z,1.35
2022-12-08T02:47:20.975Z,1.45
2022-12-08T02:49:48.564Z,2.55
2022-12-08T02:52:15.376Z,1.60
2022-12-08T02:54:46.146Z,5.03
2022-12-08T02:57:32.378Z,1.83
2022-12-08T03:00:11.449Z,1.35
2022-12-08T03:02:57.077Z,2.00
2022-12-08T03:05:57.938Z,2.15
2022-12-08T03:08:28.073Z,5.55
2022-12-08T03:11:11.415Z,1.38
2022-12-08T03:13:46.315Z,0.80
2022-12-08T03:16:16.779Z,2.60
2022-12-08T03:18:50.121Z,3.70
2022-12-08T03:21:18.825Z,2.92
2022-12-08T03:23:47.136Z,6.57
2022-12-08T03:26:34.162Z,5.68
2022-12-08T03:29:01.635Z,5.35
2022-12-08T03:31:33.897Z,3.20
2022-12-08T03:34:01.869Z,2.33
2022-12-08T03:36:29.236Z,1.50
2022-12-08T03:38:56.697Z,2.97
2022-12-08T03:41:23.828Z,1.88
2022-12-08T03:44:01.006Z,1.30
2022-12-08T03:48:55.465Z,2.03
2022-12-08T03:51:23.387Z,2.90
2022-12-08T03:53:50.935Z,2.83
2022-12-08T03:56:31.076Z,2.95
2022-12-08T03:58:58.834Z,2.35
2022-12-08T04:01:25.917Z,2.33
2022-12-08T04:03:53.405Z,6.70
2022-12-08T04:06:21.136Z,4.68
2022-12-08T04:08:49.435Z,2.55
2022-12-08T04:11:17.316Z,5.78
2022-12-08T04:13:44.876Z,2.50
2022-12-08T04:16:16.770Z,2.15
2022-12-08T04:18:44.279Z,3.40
2022-12-08T04:21:11.454Z,2.65
2022-12-08T04:23:38.630Z,1.55
2022-12-08T04:26:06.493Z,2.28
2022-12-08T04:28:33.606Z,3.50
2022-12-08T04:31:00.963Z,3.97
2022-12-08T04:33:28.599Z,2.78
2022-12-08T04:35:55.774Z,3.92
2022-12-08T04:38:23.526Z,1.67
2022-12-08T04:40:50.496Z,6.85
2022-12-08T04:43:17.974Z,2.22
2022-12-08T04:45:44.885Z,6.47
2022-12-08T04:48:14.774Z,3.35
2022-12-08T04:50:43.972Z,0.45
2022-12-08T04:53:12.056Z,1.90
2022-12-08T04:55:44.555Z,9.02
2022-12-08T04:58:15.815Z,4.78
2022-12-08T05:00:43.479Z,1.20
2022-12-08T05:03:10.452Z,2.15
2022-12-08T05:05:37.544Z,4.25
2022-12-08T05:08:05.316Z,1.50
2022-12-08T05:10:33.239Z,2.78
2022-12-08T05:13:00.916Z,0.60
2022-12-08T05:15:28.075Z,1.10
2022-12-08T05:17:55.414Z,2.47
2022-12-08T05:20:23.014Z,3.42
2022-12-08T05:22:50.213Z,1.30
2022-12-08T05:25:17.496Z,2.03
2022-12-08T05:27:45.170Z,3.33
2022-12-08T05:30:12.405Z,1.33
2022-12-08T05:32:39.377Z,5.80
2022-12-08T05:35:07.314Z,4.97
2022-12-08T05:37:34.224Z,3.40
2022-12-08T05:40:01.256Z,3.72
2022-12-08T05:42:28.666Z,1.80
2022-12-08T05:44:55.923Z,3.15
2022-12-08T05:47:22.814Z,3.58
2022-12-08T05:49:50.215Z,4.00
2022-12-08T05:52:18.004Z,1.95
2022-12-08T05:54:45.487Z,2.53
2022-12-08T05:57:12.514Z,2.38
2022-12-08T05:59:39.906Z,1.05
2022-12-08T06:02:09.324Z,0.68
2022-12-08T06:04:36.956Z,2.67
2022-12-08T06:07:04.597Z,0.88
2022-12-08T06:09:31.893Z,0.95
2022-12-08T06:11:59.212Z,0.55
2022-12-08T06:14:26.374Z,1.60
2022-12-08T06:16:53.544Z,0.75
2022-12-08T06:19:20.895Z,0.35
2022-12-08T06:21:48.274Z,2.75
2022-12-08T06:24:15.178Z,0.50
2022-12-08T06:26:42.575Z,1.27
2022-12-08T06:29:09.553Z,0.73
2022-12-08T06:31:36.751Z,1.05
2022-12-08T06:34:04.134Z,0.68
2022-12-08T06:36:31.240Z,0.65
2022-12-08T06:38:58.810Z,2.08
2022-12-08T06:41:25.813Z,2.25
2022-12-08T06:43:52.957Z,1.58
2022-12-08T06:46:20.949Z,2.45
2022-12-08T06:48:48.460Z,2.47
2022-12-08T06:51:17.746Z,3.47
2022-12-08T06:53:45.393Z,1.70
2022-12-08T06:56:13.426Z,2.75
2022-12-08T06:58:40.776Z,1.65
2022-12-08T07:01:13.422Z,3.10
2022-12-08T07:03:41.327Z,0.70
2022-12-08T07:06:08.807Z,3.15
2022-12-08T07:08:35.750Z,1.73
2022-12-08T07:11:10.358Z,4.05
2022-12-08T07:13:37.428Z,1.45
2022-12-08T07:16:09.156Z,1.77
2022-12-08T07:18:37.158Z,3.95
2022-12-08T07:21:06.456Z,1.75
2022-12-08T07:23:34.015Z,4.32
2022-12-08T07:26:05.394Z,3.83
2022-12-08T07:28:33.697Z,4.68
2022-12-08T07:31:00.882Z,4.85
2022-12-08T07:33:28.328Z,3.38
2022-12-08T07:35:57.223Z,2.67
2022-12-08T07:38:24.741Z,2.45
2022-12-08T07:40:52.283Z,10.00
2022-12-08T07:43:19.340Z,3.28
2022-12-08T07:45:46.394Z,6.20
2022-12-08T07:48:13.767Z,4.43
2022-12-08T07:50:40.969Z,2.88
2022-12-08T07:53:08.379Z,2.17
2022-12-08T07:55:35.686Z,3.80
2022-12-08T07:58:03.309Z,3.35
2022-12-08T08:00:30.538Z,11.48
2022-12-08T08:02:57.935Z,9.65
2022-12-08T08:05:25.156Z,8.85
2022-12-08T08:07:52.490Z,10.82
2022-12-08T08:10:19.887Z,8.55
2022-12-08T08:12:47.799Z,5.57
2022-12-08T08:15:15.264Z,19.60
2022-12-08T08:17:42.585Z,5.15
2022-12-08T08:20:10.518Z,35.00
2022-12-08T08:22:38.091Z,19.08
2022-12-08T08:25:06.026Z,10.07
2022-12-08T08:27:34.467Z,9.77
2022-12-08T08:30:01.736Z,14.35
2022-12-08T08:32:33.066Z,16.67
2022-12-08T08:35:00.561Z,6.50
2022-12-08T08:37:27.947Z,10.80
2022-12-08T08:39:55.252Z,59.55
2022-12-08T08:42:23.018Z,54.13
2022-12-08T08:44:51.467Z,113.88
2022-12-08T08:47:18.848Z,24.50
2022-12-08T08:49:47.109Z,5.75
2022-12-08T08:52:14.749Z,4.95
2022-12-08T08:54:44.350Z,3.00
2022-12-08T08:57:12.870Z,2.03
2022-12-08T08:59:41.416Z,1.30
2022-12-08T09:02:14.380Z,2.05
2022-12-08T09:04:42.160Z,4.53
2022-12-08T09:07:09.546Z,7.30
2022-12-08T09:09:39.587Z,4.57
2022-12-08T09:12:07.760Z,13.38
2022-12-08T09:14:36.018Z,14.40
2022-12-08T09:17:03.362Z,26.05
2022-12-08T09:19:30.708Z,14.65
2022-12-08T09:21:58.089Z,6.40
2022-12-08T09:24:27.707Z,14.63
2022-12-08T09:26:54.906Z,11.93
2022-12-08T09:29:22.268Z,12.65
2022-12-08T09:31:49.786Z,6.22
2022-12-08T09:34:19.470Z,8.98
2022-12-08T09:36:47.111Z,13.15
2022-12-08T09:39:15.247Z,13.52
2022-12-08T09:41:51.971Z,8.43
2022-12-08T09:44:49.047Z,10.75
2022-12-08T09:47:35.460Z,9.30
2022-12-08T09:50:29.279Z,5.68
2022-12-08T09:53:11.974Z,7.85
2022-12-08T09:55:43.767Z,12.23
2022-12-08T09:58:18.488Z,7.07
2022-12-08T10:00:46.651Z,3.40
2022-12-08T10:03:17.031Z,4.07
2022-12-08T10:05:55.175Z,3.08
2022-12-08T10:08:31.159Z,3.60
2022-12-08T10:11:00.389Z,3.03
2022-12-08T10:13:45.246Z,9.55
2022-12-08T10:16:28.137Z,6.68
2022-12-08T10:19:02.570Z,6.93
2022-12-08T10:21:30.608Z,8.93
2022-12-08T10:24:05.188Z,3.17
2022-12-08T10:26:33.302Z,3.33
2022-12-08T10:29:02.941Z,5.45
2022-12-08T10:31:32.716Z,3.75
2022-12-08T10:34:01.636Z,2.83
2022-12-08T10:36:58.688Z,6.80
2022-12-08T10:39:39.587Z,7.38
2022-12-08T10:42:16.126Z,5.43
2022-12-08T10:45:00.141Z,4.40
2022-12-08T10:47:28.286Z,7.30
2022-12-08T10:50:10.668Z,21.35
2022-12-08T10:52:40.099Z,5.65
2022-12-08T10:55:18.610Z,3.22
2022-12-08T10:57:46.228Z,4.90
2022-12-08T11:00:18.797Z,5.90
2022-12-08T11:02:58.727Z,3.22
2022-12-08T11:05:33.565Z,4.45
2022-12-08T11:08:01.224Z,16.90
2022-12-08T11:10:43.437Z,27.17
2022-12-08T11:13:20.257Z,16.17
2022-12-08T11:15:47.522Z,33.22
2022-12-08T11:18:39.267Z,6.72
2022-12-08T11:21:10.748Z,5.75
2022-12-08T11:23:38.097Z,10.68
2022-12-08T11:26:17.359Z,13.57
2022-12-08T11:28:44.435Z,35.67
2022-12-08T11:31:34.897Z,3.13
2022-12-08T11:34:02.737Z,7.90
2022-12-08T11:36:30.825Z,7.40
2022-12-08T11:39:00.957Z,10.00
2022-12-08T11:41:34.967Z,11.75
2022-12-08T11:44:26.908Z,22.05
2022-12-08T11:47:00.146Z,15.82
2022-12-08T11:49:37.927Z,5.65
2022-12-08T11:52:17.801Z,6.03
2022-12-08T11:55:05.187Z,5.28
2022-12-08T11:57:32.222Z,6.10
2022-12-08T11:59:59.428Z,3.40
2022-12-08T12:02:32.671Z,2.88
2022-12-08T12:05:06.785Z,3.85
2022-12-08T12:08:07.741Z,2.10
2022-12-08T12:10:57.120Z,3.88
2022-12-08T12:13:33.196Z,3.38
2022-12-08T12:16:11.614Z,3.60
2022-12-08T12:18:45.707Z,17.42
2022-12-08T12:21:19.656Z,2.53
2022-12-08T12:23:52.408Z,5.38
2022-12-08T12:26:25.352Z,8.73
2022-12-08T12:28:57.328Z,5.13
2022-12-08T12:31:33.611Z,3.05
2022-12-08T12:34:08.308Z,3.47
2022-12-08T12:36:56.614Z,1.75
2022-12-08T12:39:31.516Z,4.22
2022-12-08T12:42:02.066Z,2.92
2022-12-08T12:44:29.172Z,4.47
2022-12-08T12:46:59.233Z,3.40
2022-12-08T12:49:40.191Z,10.90
2022-12-08T12:52:10.952Z,1.85
2022-12-08T12:54:43.337Z,3.28
2022-12-08T12:57:13.932Z,2.42
2022-12-08T13:00:05.560Z,22.52
2022-12-08T13:02:34.713Z,56.67
2022-12-08T13:05:10.798Z,49.97
2022-12-08T13:07:52.697Z,52.13
2022-12-08T13:10:30.908Z,56.20
2022-12-08T13:13:18.618Z,39.60
2022-12-08T13:16:19.185Z,10.15
2022-12-08T13:18:50.490Z,8.27
2022-12-08T13:21:21.557Z,11.32
2022-12-08T13:24:14.865Z,14.15
2022-12-08T13:26:51.006Z,8.85
2022-12-08T13:29:22.367Z,20.17
2022-12-08T13:32:00.831Z,4.40
2022-12-08T13:34:31.779Z,2.38
2022-12-08T13:37:11.445Z,2.58
2022-12-08T13:39:41.232Z,4.38
2022-12-08T13:42:25.271Z,3.47
2022-12-08T13:45:24.208Z,5.63
2022-12-08T13:53:22.428Z,10.57
2022-12-08T13:57:08.471Z,6.07
2022-12-08T13:59:44.243Z,7.63
2022-12-08T14:02:42.216Z,10.90
2022-12-08T14:05:29.798Z,8.73
2022-12-08T14:11:36.781Z,13.68
2022-12-08T14:15:00.473Z,7.47
2022-12-08T14:17:21.936Z,14.57
2022-12-08T14:19:59.149Z,14.82
2022-12-08T14:22:36.481Z,8.10
2022-12-08T14:25:06.256Z,10.38
2022-12-08T14:27:37.032Z,6.63
2022-12-08T14:30:13.774Z,7.07
2022-12-08T14:33:00.510Z,15.52
2022-12-08T14:35:37.761Z,7.38
2022-12-08T14:38:18.846Z,4.15
2022-12-08T14:41:01.198Z,2.58
2022-12-08T14:43:30.315Z,4.25
2022-12-08T14:46:02.538Z,2.85
2022-12-08T14:48:36.483Z,4.43
2022-12-08T14:51:13.621Z,2.60
2022-12-08T14:53:48.171Z,2.53
2022-12-08T14:56:21.776Z,4.47
2022-12-08T14:59:21.370Z,4.05
2022-12-08T15:01:50.202Z,4.68
2022-12-08T15:04:24.909Z,3.33
2022-12-08T15:06:59.050Z,3.25
2022-12-08T15:09:39.370Z,6.32
2022-12-08T15:12:12.593Z,7.57
2022-12-08T15:15:00.316Z,3.65
2022-12-08T15:17:36.667Z,4.10
2022-12-08T15:20:05.799Z,3.72
2022-12-08T15:22:34.128Z,8.20
2022-12-08T15:25:01.855Z,6.45
2022-12-08T15:27:29.158Z,6.97
2022-12-08T15:30:00.105Z,5.15
2022-12-08T15:32:29.844Z,4.45
2022-12-08T15:34:57.462Z,16.33
2022-12-08T15:37:26.782Z,52.95
2022-12-08T15:39:54.918Z,42.97
2022-12-08T15:42:22.657Z,111.70
2022-12-08T15:45:08.986Z,25.90
2022-12-08T15:47:36.328Z,24.92
2022-12-08T15:50:05.065Z,57.08
2022-12-08T15:52:33.277Z,14.20
2022-12-08T15:55:00.828Z,15.52
2022-12-08T16:00:51.324Z,6.00
2022-12-08T16:07:12.470Z,7.20
2022-12-08T16:09:22.017Z,12.55
2022-12-08T16:12:11.004Z,11.07
2022-12-08T16:17:28.997Z,26.50
2022-12-08T16:19:56.930Z,29.40
2022-12-08T16:25:26.474Z,20.80
2022-12-08T16:28:03.113Z,38.10
2022-12-08T16:30:40.537Z,41.13
2022-12-08T16:44:56.302Z,18.05
2022-12-08T16:47:26.313Z,12.65
2022-12-08T16:49:54.678Z,15.30
2022-12-08T16:52:28.721Z,12.65
2022-12-08T16:54:56.950Z,16.83
2022-12-08T16:57:24.661Z,21.52
2022-12-08T16:59:52.144Z,18.25
2022-12-08T17:02:19.314Z,16.67
2022-12-08T17:04:47.109Z,15.95
2022-12-08T17:07:14.880Z,16.20
2022-12-08T17:09:42.239Z,33.10
2022-12-08T17:12:11.060Z,23.92
2022-12-08T17:14:38.278Z,18.30
2022-12-08T17:17:06.725Z,17.25
2022-12-08T17:19:34.190Z,16.10
2022-12-08T17:22:02.439Z,18.77
2022-12-08T17:24:31.026Z,18.42
2022-12-08T17:27:04.576Z,17.70
2022-12-08T17:29:33.178Z,18.40
2022-12-08T17:32:00.809Z,22.77
2022-12-08T17:34:28.762Z,18.98
2022-12-08T17:36:55.937Z,21.35
2022-12-08T17:39:23.767Z,18.73
2022-12-08T17:41:50.963Z,18.63
2022-12-08T17:44:19.531Z,17.85
2022-12-08T17:46:52.699Z,22.73
2022-12-08T17:49:23.841Z,20.83
2022-12-08T17:51:54.762Z,18.30
2022-12-08T17:54:22.455Z,15.73
2022-12-08T17:56:50.820Z,19.70
2022-12-08T17:59:18.520Z,24.58
2022-12-08T18:01:45.984Z,23.65
2022-12-08T18:04:13.409Z,22.15
2022-12-08T18:06:41.336Z,19.30
2022-12-08T18:09:08.990Z,24.58
2022-12-08T18:11:36.701Z,19.75
2022-12-08T18:14:10.174Z,16.38
2022-12-08T18:16:39.514Z,20.80
2022-12-08T18:19:07.570Z,23.10
2022-12-08T18:21:35.381Z,23.60
2022-12-08T18:24:02.560Z,29.63
2022-12-08T18:26:30.879Z,28.50
2022-12-08T18:28:58.485Z,28.95
2022-12-08T18:31:26.184Z,28.17
2022-12-08T18:33:53.941Z,35.08
2022-12-08T18:36:24.152Z,102.13
2022-12-08T18:38:52.411Z,87.85
2022-12-08T18:41:25.943Z,64.78
2022-12-08T18:43:57.579Z,54.38
2022-12-08T18:46:25.676Z,74.70
2022-12-08T18:48:53.570Z,57.47
2022-12-08T18:51:23.486Z,57.05
2022-12-08T18:53:51.138Z,63.28
2022-12-08T18:56:36.881Z,41.33
2022-12-08T18:59:09.599Z,38.88
2022-12-08T19:01:38.693Z,38.38
2022-12-08T19:06:55.250Z,46.45
2022-12-08T19:09:23.082Z,36.97
2022-12-08T19:11:50.414Z,31.85
2022-12-08T19:14:20.193Z,56.03
2022-12-08T19:16:52.149Z,196.63
2022-12-08T19:19:20.134Z,62.67
2022-12-08T19:21:47.510Z,143.90
2022-12-08T19:24:15.023Z,110.15
2022-12-08T19:26:42.950Z,61.50
2022-12-08T19:29:10.582Z,51.70
2022-12-08T19:31:38.130Z,36.55
2022-12-08T19:34:09.428Z,26.88
2022-12-08T19:36:42.788Z,29.85
2022-12-08T19:39:54.964Z,28.00
2022-12-08T19:42:40.691Z,29.42
2022-12-08T19:47:45.887Z,38.53
2022-12-08T19:50:33.918Z,34.88
2022-12-08T19:53:02.448Z,40.75
2022-12-08T19:55:29.799Z,63.42
2022-12-08T19:57:57.513Z,59.60
2022-12-08T20:00:25.264Z,40.20
2022-12-08T20:02:52.530Z,30.38
2022-12-08T20:05:19.772Z,59.92
2022-12-08T20:07:47.724Z,55.90
2022-12-08T20:10:22.234Z,52.97
2022-12-08T20:12:49.844Z,49.35
2022-12-08T20:15:17.232Z,48.67
2022-12-08T20:17:44.865Z,37.95
2022-12-08T20:20:14.150Z,48.85
2022-12-08T20:22:42.268Z,59.58
2022-12-08T20:25:13.004Z,46.03
2022-12-08T20:27:45.145Z,37.50
2022-12-08T20:30:17.074Z,39.47
2022-12-08T20:32:46.491Z,33.30
2022-12-08T20:35:17.784Z,43.35
2022-12-08T20:37:45.597Z,40.35
2022-12-08T20:40:12.868Z,57.38
2022-12-08T20:42:40.264Z,43.50
2022-12-08T20:45:09.923Z,42.63
2022-12-08T20:47:37.693Z,36.13
2022-12-08T20:50:06.416Z,38.95
2022-12-08T20:52:41.820Z,44.15
2022-12-08T20:55:15.695Z,54.17
2022-12-08T20:57:43.018Z,65.97
2022-12-08T21:00:17.022Z,78.32
2022-12-08T21:02:49.795Z,95.60
2022-12-08T21:05:22.149Z,115.03
2022-12-08T21:07:49.678Z,122.60
2022-12-08T21:10:17.436Z,134.80
2022-12-08T21:12:45.155Z,146.65
2022-12-08T21:15:12.850Z,177.93
2022-12-08T21:17:40.603Z,131.80
2022-12-08T21:20:08.671Z,162.35
2022-12-08T21:22:36.114Z,160.00
2022-12-08T21:25:04.562Z,185.05
2022-12-08T21:27:32.873Z,167.27
2022-12-08T21:30:00.785Z,174.48
2022-12-08T21:32:30.608Z,158.00
2022-12-08T21:34:58.369Z,172.20
2022-12-08T21:37:25.529Z,195.00
2022-12-08T21:39:53.145Z,283.30
2022-12-08T21:42:38.989Z,236.02
2022-12-08T21:45:06.772Z,305.77
2022-12-08T21:47:34.099Z,258.10
2022-12-08T21:50:01.909Z,263.20
2022-12-08T21:52:29.164Z,319.50
2022-12-08T21:54:56.457Z,242.88
2022-12-08T21:57:26.329Z,244.88
2022-12-08T21:59:59.332Z,221.05
2022-12-08T22:02:28.353Z,221.82
2022-12-08T22:04:57.269Z,272.52
2022-12-08T22:07:24.790Z,342.08
2022-12-08T22:09:52.272Z,248.35
2022-12-08T22:12:19.720Z,234.35
2022-12-08T22:14:48.916Z,290.95
2022-12-08T22:17:16.362Z,249.75
2022-12-08T22:19:43.667Z,260.98
2022-12-08T22:22:11.403Z,276.83
2022-12-08T22:24:38.707Z,275.63
2022-12-08T22:27:06.088Z,115.75
2022-12-08T22:29:33.143Z,194.98
2022-12-08T22:32:00.915Z,160.25
2022-12-08T22:34:28.424Z,118.68
2022-12-08T22:36:56.150Z,169.68
2022-12-08T22:39:23.981Z,248.05
2022-12-08T22:41:51.172Z,227.05
2022-12-08T22:44:18.712Z,238.65
2022-12-08T22:46:45.977Z,185.75
2022-12-08T22:49:13.402Z,146.07
2022-12-08T22:51:40.734Z,201.07
2022-12-08T22:54:11.131Z,129.75
2022-12-08T22:56:38.589Z,150.88
2022-12-08T22:59:06.274Z,164.35
2022-12-08T23:01:34.140Z,139.52
2022-12-08T23:04:02.030Z,103.53
2022-12-08T23:06:30.807Z,117.80
2022-12-08T23:08:58.624Z,108.78
2022-12-08T23:11:28.724Z,83.15
2022-12-08T23:13:58.004Z,120.53
2022-12-08T23:16:25.075Z,117.13
2022-12-08T23:18:52.728Z,134.95
2022-12-08T23:21:21.219Z,147.63
2022-12-08T23:23:48.536Z,76.95
2022-12-08T23:26:22.953Z,74.13
2022-12-08T23:28:50.515Z,102.40
2022-12-08T23:31:18.837Z,52.97
2022-12-08T23:33:46.135Z,30.10
2022-12-08T23:36:14.727Z,42.58
2022-12-08T23:38:42.150Z,41.20
2022-12-08T23:41:11.998Z,32.05
2022-12-08T23:43:44.220Z,35.78
2022-12-08T23:46:11.784Z,37.72
2022-12-08T23:48:38.738Z,30.52
2022-12-08T23:51:06.436Z,27.63
2022-12-08T23:53:34.064Z,27.13
2022-12-08T23:56:04.202Z,26.95
2022-12-08T23:58:32.360Z,33.60
